Time;durP1;ratioP1;P1;durP2;ratioP2;P2;SDS_P1;SDS_P2;PMS_P1;PMS_P2;Temp;Humidity;BMP_temperature;BMP_pressure;BME280_temperature;BME280_humidity;BME280_pressure;Samples;Min_cycle;Max_cycle;Signal;HPM_P1;HPM_P2
2023/11/07 00:01:34;;;;;;;1.43;1.00;;;;;;;;;;5036251;28;20235;-64
2023/11/07 00:04:03;;;;;;;2.23;1.10;;;;;;;;;;5024590;28;20310;-64
2023/11/07 00:06:31;;;;;;;1.77;1.03;;;;;;;;;;5033529;28;20204;-64
2023/11/07 00:09:00;;;;;;;2.87;1.20;;;;;;;;;;5033912;28;20678;-65
2023/11/07 00:11:28;;;;;;;1.23;1.03;;;;;;;;;;5017766;28;20606;-66
2023/11/07 00:13:58;;;;;;;1.77;0.87;;;;;;;;;;5022452;28;20644;-66
2023/11/07 00:16:27;;;;;;;1.47;0.90;;;;;;;;;;5025618;28;20622;-64
2023/11/07 00:18:58;;;;;;;1.27;1.17;;;;;;;;;;5017953;28;20216;-66
2023/11/07 00:21:27;;;;;;;2.00;1.00;;;;;;;;;;5018038;28;20228;-65
2023/11/07 00:23:55;;;;;;;2.70;1.00;;;;;;;;;;5033798;28;20317;-66
2023/11/07 00:26:23;;;;;;;1.80;0.90;;;;;;;;;;5037778;28;20208;-65
2023/11/07 00:28:51;;;;;;;1.37;0.80;;;;;;;;;;5024331;28;20568;-65
2023/11/07 00:31:21;;;;;;;2.57;0.93;;;;;;;;;;5020247;28;20652;-65
2023/11/07 00:33:49;;;;;;;1.40;0.77;;;;;;;;;;5017101;28;20239;-65
2023/11/07 00:36:18;;;;;;;1.70;1.27;;;;;;;;;;5030894;28;20246;-64
2023/11/07 00:38:47;;;;;;;3.90;1.07;;;;;;;;;;5031789;28;20626;-64
2023/11/07 00:41:15;;;;;;;1.50;1.03;;;;;;;;;;5021888;28;20290;-64
2023/11/07 00:43:43;;;;;;;2.10;1.53;;;;;;;;;;5017811;28;20350;-64
2023/11/07 00:46:11;;;;;;;1.57;0.90;;;;;;;;;;5024288;28;20257;-64
2023/11/07 00:48:41;;;;;;;1.23;0.90;;;;;;;;;;5032563;28;20726;-63
2023/11/07 00:51:11;;;;;;;1.40;0.87;;;;;;;;;;5017616;28;20267;-63
2023/11/07 00:53:39;;;;;;;1.50;1.20;;;;;;;;;;5020968;28;20286;-63
2023/11/07 00:56:09;;;;;;;1.87;1.00;;;;;;;;;;5021640;28;20208;-63
2023/11/07 00:58:37;;;;;;;1.10;1.00;;;;;;;;;;5031644;28;20204;-65
2023/11/07 01:01:05;;;;;;;1.27;0.90;;;;;;;;;;5037003;28;20699;-65
2023/11/07 01:03:34;;;;;;;2.17;1.00;;;;;;;;;;5032498;28;20255;-63
2023/11/07 01:06:05;;;;;;;1.87;0.83;;;;;;;;;;5032111;28;20211;-66
2023/11/07 01:08:33;;;;;;;4.23;1.20;;;;;;;;;;5038542;28;20234;-64
2023/11/07 01:11:03;;;;;;;2.70;1.10;;;;;;;;;;5028125;28;20291;-64
2023/11/07 01:13:31;;;;;;;1.60;0.97;;;;;;;;;;5040138;28;20210;-64
2023/11/07 01:15:59;;;;;;;1.50;1.03;;;;;;;;;;5035625;28;20570;-64
2023/11/07 01:18:28;;;;;;;2.10;1.10;;;;;;;;;;5039803;28;20291;-64
2023/11/07 01:20:57;;;;;;;1.77;1.47;;;;;;;;;;5034728;28;20646;-64
2023/11/07 01:23:27;;;;;;;2.23;1.23;;;;;;;;;;5022869;28;20294;-64
2023/11/07 01:25:55;;;;;;;1.60;0.83;;;;;;;;;;5032976;28;20208;-64
2023/11/07 01:28:23;;;;;;;1.90;1.30;;;;;;;;;;5035340;28;20235;-64
2023/11/07 01:30:51;;;;;;;2.23;1.10;;;;;;;;;;5039449;28;20200;-64
2023/11/07 01:33:19;;;;;;;1.93;1.23;;;;;;;;;;5034288;28;20200;-64
2023/11/07 01:35:48;;;;;;;2.93;1.43;;;;;;;;;;5029031;28;20297;-63
2023/11/07 01:38:16;;;;;;;1.80;1.20;;;;;;;;;;5037802;28;20729;-63
2023/11/07 01:40:46;;;;;;;2.30;1.30;;;;;;;;;;5021284;28;20310;-64
2023/11/07 01:43:15;;;;;;;1.77;1.10;;;;;;;;;;5025924;28;20243;-63
2023/11/07 01:45:44;;;;;;;4.63;1.40;;;;;;;;;;5038910;28;20658;-64
2023/11/07 01:48:13;;;;;;;2.33;1.17;;;;;;;;;;5039104;28;20242;-63
2023/11/07 01:50:42;;;;;;;2.73;1.27;;;;;;;;;;5039547;28;20204;-64
2023/11/07 01:53:11;;;;;;;2.33;1.53;;;;;;;;;;5038294;28;20708;-64
2023/11/07 01:55:40;;;;;;;1.93;1.23;;;;;;;;;;5020865;28;20205;-64
2023/11/07 01:58:10;;;;;;;1.43;1.20;;;;;;;;;;5034576;28;20200;-64
2023/11/07 02:00:39;;;;;;;2.43;1.27;;;;;;;;;;5019631;28;20196;-64
2023/11/07 02:03:08;;;;;;;1.30;1.00;;;;;;;;;;5017672;28;20220;-63
2023/11/07 02:05:37;;;;;;;1.63;1.40;;;;;;;;;;5038814;28;20229;-64
2023/11/07 02:08:06;;;;;;;2.23;1.20;;;;;;;;;;5034758;28;20279;-64
2023/11/07 02:10:34;;;;;;;1.90;1.50;;;;;;;;;;5020432;28;20204;-64
2023/11/07 02:13:02;;;;;;;3.03;1.50;;;;;;;;;;5020127;28;20319;-63
2023/11/07 02:15:35;;;;;;;2.70;1.30;;;;;;;;;;5026426;28;20213;-63
2023/11/07 02:18:04;;;;;;;1.97;0.93;;;;;;;;;;5019876;28;20611;-64
2023/11/07 02:20:36;;;;;;;2.93;1.40;;;;;;;;;;5019734;28;20208;-64
2023/11/07 02:23:07;;;;;;;2.03;1.30;;;;;;;;;;5029134;28;20242;-66
2023/11/07 02:25:38;;;;;;;1.43;0.97;;;;;;;;;;5037048;28;20768;-63
2023/11/07 02:28:08;;;;;;;3.40;1.10;;;;;;;;;;5025014;28;20294;-64
2023/11/07 02:30:37;;;;;;;2.00;1.57;;;;;;;;;;5029643;28;20286;-64
2023/11/07 02:33:05;;;;;;;2.47;1.40;;;;;;;;;;5035486;28;20220;-64
2023/11/07 02:35:33;;;;;;;2.47;1.20;;;;;;;;;;5019379;28;20240;-64
2023/11/07 02:38:02;;;;;;;3.30;1.40;;;;;;;;;;5019326;28;20215;-64
2023/11/07 02:40:31;;;;;;;2.57;1.00;;;;;;;;;;5019338;28;20235;-64
2023/11/07 02:43:02;;;;;;;2.37;1.30;;;;;;;;;;5025900;28;20235;-64
2023/11/07 02:45:32;;;;;;;1.27;1.07;;;;;;;;;;5018561;28;20628;-63
2023/11/07 02:48:00;;;;;;;1.97;1.33;;;;;;;;;;5019030;28;20208;-63
2023/11/07 02:50:29;;;;;;;1.90;1.40;;;;;;;;;;5019491;28;20239;-64
2023/11/07 02:52:58;;;;;;;1.30;1.07;;;;;;;;;;5019322;28;20228;-63
2023/11/07 02:55:26;;;;;;;2.63;1.30;;;;;;;;;;5034914;28;20235;-65
2023/11/07 02:57:55;;;;;;;3.17;1.60;;;;;;;;;;5018600;28;20207;-64
2023/11/07 03:00:26;;;;;;;2.33;1.30;;;;;;;;;;5022213;28;20214;-66
2023/11/07 03:02:54;;;;;;;2.70;1.47;;;;;;;;;;5022711;28;20305;-66
2023/11/07 03:05:23;;;;;;;4.13;1.60;;;;;;;;;;5029094;28;20717;-66
2023/11/07 03:07:51;;;;;;;1.47;1.30;;;;;;;;;;5038744;28;20204;-66
2023/11/07 03:10:19;;;;;;;2.80;1.40;;;;;;;;;;5022144;28;20205;-66
2023/11/07 03:12:48;;;;;;;4.30;1.50;;;;;;;;;;5018756;28;20275;-66
2023/11/07 03:15:16;;;;;;;2.80;1.37;;;;;;;;;;5024337;28;20200;-65
2023/11/07 03:17:46;;;;;;;4.30;1.67;;;;;;;;;;5020613;28;20549;-66
2023/11/07 03:20:16;;;;;;;1.77;1.50;;;;;;;;;;5032695;28;20234;-65
2023/11/07 03:22:44;;;;;;;2.50;1.67;;;;;;;;;;5018708;28;20576;-66
2023/11/07 03:25:13;;;;;;;2.70;1.40;;;;;;;;;;5018182;28;20591;-65
2023/11/07 03:27:41;;;;;;;6.63;2.00;;;;;;;;;;5021350;28;20697;-66
2023/11/07 03:30:10;;;;;;;1.97;1.60;;;;;;;;;;5035873;28;20204;-66
2023/11/07 03:32:38;;;;;;;4.30;2.40;;;;;;;;;;5037636;28;20227;-65
2023/11/07 03:35:08;;;;;;;2.70;1.40;;;;;;;;;;5028363;28;20204;-66
2023/11/07 03:37:37;;;;;;;2.37;1.47;;;;;;;;;;5037591;28;20215;-65
2023/11/07 03:40:06;;;;;;;3.60;1.90;;;;;;;;;;5019900;28;20211;-65
2023/11/07 03:42:35;;;;;;;4.33;1.63;;;;;;;;;;5018052;28;20224;-65
2023/11/07 03:45:03;;;;;;;4.67;1.60;;;;;;;;;;5017391;28;20220;-65
2023/11/07 03:47:32;;;;;;;2.33;1.77;;;;;;;;;;5017629;28;20208;-65
2023/11/07 03:50:00;;;;;;;4.70;1.83;;;;;;;;;;5017620;28;20230;-65
2023/11/07 03:52:30;;;;;;;3.87;1.60;;;;;;;;;;5017566;28;20254;-66
2023/11/07 03:54:58;;;;;;;2.10;1.30;;;;;;;;;;5034377;28;20213;-65
2023/11/07 03:57:26;;;;;;;2.70;1.33;;;;;;;;;;5036862;28;20291;-66
2023/11/07 03:59:55;;;;;;;2.40;1.77;;;;;;;;;;5024119;28;20208;-65
2023/11/07 04:02:23;;;;;;;2.17;1.50;;;;;;;;;;5029229;28;20255;-66
2023/11/07 04:04:53;;;;;;;1.87;1.50;;;;;;;;;;5036826;28;20243;-66
2023/11/07 04:07:22;;;;;;;4.80;1.70;;;;;;;;;;5031929;28;20246;-65
2023/11/07 04:09:52;;;;;;;2.93;1.60;;;;;;;;;;5036702;28;20540;-66
2023/11/07 04:12:20;;;;;;;3.20;1.60;;;;;;;;;;5037809;28;20323;-66
2023/11/07 04:14:50;;;;;;;2.43;1.70;;;;;;;;;;5034504;28;20204;-65
2023/11/07 04:17:21;;;;;;;2.67;1.87;;;;;;;;;;5032142;28;20590;-65
2023/11/07 04:19:51;;;;;;;2.90;1.80;;;;;;;;;;5035892;28;20655;-65
2023/11/07 04:22:21;;;;;;;2.47;1.90;;;;;;;;;;5021558;28;20224;-65
2023/11/07 04:25:01;;;;;;;3.27;1.53;;;;;;;;;;5026736;28;20203;-65
2023/11/07 04:27:30;;;;;;;4.47;2.13;;;;;;;;;;5016868;28;20211;-65
2023/11/07 04:30:00;;;;;;;3.70;1.70;;;;;;;;;;5016434;28;20208;-65
2023/11/07 04:32:30;;;;;;;2.17;1.60;;;;;;;;;;5023357;28;20623;-65
2023/11/07 04:35:00;;;;;;;3.63;1.97;;;;;;;;;;5024514;28;20235;-65
2023/11/07 04:37:31;;;;;;;1.60;1.47;;;;;;;;;;5008268;28;20228;-64
2023/11/07 04:40:02;;;;;;;3.00;1.50;;;;;;;;;;5005183;28;20251;-65
2023/11/07 04:42:32;;;;;;;2.27;1.70;;;;;;;;;;5008200;28;20275;-66
2023/11/07 04:45:01;;;;;;;2.67;1.43;;;;;;;;;;5006927;28;20267;-65
2023/11/07 04:47:30;;;;;;;3.83;1.50;;;;;;;;;;5007340;28;20220;-65
2023/11/07 04:49:59;;;;;;;1.60;1.50;;;;;;;;;;5007627;28;20723;-65
2023/11/07 04:52:28;;;;;;;2.20;1.60;;;;;;;;;;5008219;28;20220;-65
2023/11/07 04:54:57;;;;;;;1.43;1.30;;;;;;;;;;5008544;28;20201;-65
2023/11/07 04:57:27;;;;;;;1.60;1.50;;;;;;;;;;5005341;28;20575;-65
2023/11/07 04:59:55;;;;;;;3.37;1.70;;;;;;;;;;5007631;28;20279;-65
2023/11/07 05:02:24;;;;;;;1.50;1.40;;;;;;;;;;5008657;28;20224;-65
2023/11/07 05:04:52;;;;;;;1.67;1.50;;;;;;;;;;5008031;28;20209;-65
2023/11/07 05:07:23;;;;;;;1.30;1.20;;;;;;;;;;4996743;28;20849;-65
2023/11/07 05:09:55;;;;;;;4.93;1.30;;;;;;;;;;4996556;28;20211;-65
2023/11/07 05:12:23;;;;;;;4.13;1.70;;;;;;;;;;5016558;28;20224;-65
2023/11/07 05:14:53;;;;;;;2.30;1.80;;;;;;;;;;5013619;28;20201;-65
2023/11/07 05:17:22;;;;;;;5.60;1.80;;;;;;;;;;4997591;28;20209;-65
2023/11/07 05:19:50;;;;;;;1.30;1.20;;;;;;;;;;5012518;28;20244;-65
2023/11/07 05:22:18;;;;;;;1.97;1.50;;;;;;;;;;5001386;28;20235;-65
2023/11/07 05:24:46;;;;;;;3.33;1.50;;;;;;;;;;5012091;28;20204;-65
2023/11/07 05:27:15;;;;;;;1.43;1.10;;;;;;;;;;5017320;28;20311;-65
2023/11/07 05:29:44;;;;;;;2.00;1.30;;;;;;;;;;5011211;28;20580;-65
2023/11/07 05:32:13;;;;;;;2.00;1.57;;;;;;;;;;5014538;28;20316;-65
2023/11/07 05:34:43;;;;;;;3.50;1.60;;;;;;;;;;5012433;28;20208;-65
2023/11/07 05:37:11;;;;;;;2.80;1.43;;;;;;;;;;5018184;28;20331;-65
2023/11/07 05:39:39;;;;;;;1.53;1.43;;;;;;;;;;5022212;28;20216;-65
2023/11/07 05:42:08;;;;;;;2.40;2.00;;;;;;;;;;5027520;28;20259;-65
2023/11/07 05:44:37;;;;;;;4.43;2.20;;;;;;;;;;5033883;28;20200;-64
2023/11/07 05:47:06;;;;;;;3.87;2.20;;;;;;;;;;5040042;28;20282;-64
2023/11/07 05:49:36;;;;;;;3.87;2.00;;;;;;;;;;5040329;28;20209;-64
2023/11/07 05:52:05;;;;;;;2.47;1.90;;;;;;;;;;5035143;28;20719;-64
2023/11/07 05:54:34;;;;;;;3.07;1.73;;;;;;;;;;5020474;28;20239;-64
2023/11/07 05:57:02;;;;;;;2.90;1.40;;;;;;;;;;5020397;28;20673;-64
2023/11/07 05:59:31;;;;;;;2.67;1.47;;;;;;;;;;5020245;28;20208;-64
2023/11/07 06:02:00;;;;;;;1.37;1.10;;;;;;;;;;5020425;28;20238;-64
2023/11/07 06:04:30;;;;;;;4.23;1.40;;;;;;;;;;5019949;28;20810;-65
2023/11/07 06:07:01;;;;;;;2.83;1.83;;;;;;;;;;5020091;28;20232;-65
2023/11/07 06:09:30;;;;;;;2.20;1.47;;;;;;;;;;5027635;28;20656;-67
2023/11/07 06:11:58;;;;;;;2.57;1.63;;;;;;;;;;5040078;28;20231;-66
2023/11/07 06:14:26;;;;;;;5.23;3.50;;;;;;;;;;5036348;28;20204;-66
2023/11/07 06:16:54;;;;;;;2.80;1.70;;;;;;;;;;5020811;28;20283;-66
2023/11/07 06:19:23;;;;;;;3.87;1.70;;;;;;;;;;5019983;28;20214;-67
2023/11/07 06:21:51;;;;;;;2.00;1.30;;;;;;;;;;5019854;28;20255;-66
2023/11/07 06:24:21;;;;;;;2.80;1.50;;;;;;;;;;5039069;28;20212;-66
2023/11/07 06:26:49;;;;;;;1.67;1.30;;;;;;;;;;5028392;28;20255;-67
2023/11/07 06:29:18;;;;;;;1.70;1.60;;;;;;;;;;5019825;28;20212;-66
2023/11/07 06:31:46;;;;;;;1.60;1.50;;;;;;;;;;5019403;28;20296;-68
2023/11/07 06:34:15;;;;;;;2.67;1.50;;;;;;;;;;5019496;28;20291;-66
2023/11/07 06:36:45;;;;;;;4.33;1.80;;;;;;;;;;5020550;28;20240;-66
2023/11/07 06:39:15;;;;;;;2.50;1.70;;;;;;;;;;5037103;28;20257;-67
2023/11/07 06:41:45;;;;;;;2.97;1.50;;;;;;;;;;5035828;28;20314;-66
2023/11/07 06:44:13;;;;;;;4.07;1.53;;;;;;;;;;5029523;28;20207;-66
2023/11/07 06:46:42;;;;;;;1.40;1.30;;;;;;;;;;5038735;28;20255;-65
2023/11/07 06:49:10;;;;;;;2.07;1.40;;;;;;;;;;5037568;28;20214;-66
2023/11/07 06:51:39;;;;;;;4.53;1.83;;;;;;;;;;5028214;28;20274;-65
2023/11/07 06:54:08;;;;;;;1.77;1.67;;;;;;;;;;5018887;28;20284;-65
2023/11/07 06:56:38;;;;;;;2.83;1.70;;;;;;;;;;5022366;28;20208;-66
2023/11/07 06:59:08;;;;;;;3.63;1.60;;;;;;;;;;5019000;28;20212;-65
2023/11/07 07:01:36;;;;;;;5.10;1.60;;;;;;;;;;5026888;28;20224;-65
2023/11/07 07:04:05;;;;;;;1.80;1.50;;;;;;;;;;5019007;28;20691;-65
2023/11/07 07:06:35;;;;;;;6.53;1.80;;;;;;;;;;5026015;28;20212;-65
2023/11/07 07:09:05;;;;;;;3.27;1.83;;;;;;;;;;5038964;28;20258;-66
2023/11/07 07:11:33;;;;;;;3.50;1.80;;;;;;;;;;5038623;28;20254;-66
2023/11/07 07:14:02;;;;;;;3.37;2.10;;;;;;;;;;5027524;28;20200;-66
2023/11/07 07:16:32;;;;;;;3.73;1.60;;;;;;;;;;5027085;28;20208;-65
2023/11/07 07:19:06;;;;;;;2.67;1.60;;;;;;;;;;5018909;28;20212;-65
2023/11/07 07:21:35;;;;;;;3.30;1.97;;;;;;;;;;5018926;28;20278;-65
2023/11/07 07:24:15;;;;;;;5.73;2.00;;;;;;;;;;5018914;28;20212;-65
2023/11/07 07:26:46;;;;;;;1.93;1.70;;;;;;;;;;5018809;28;20652;-65
2023/11/07 07:29:15;;;;;;;3.77;1.80;;;;;;;;;;5018706;28;20240;-64
2023/11/07 07:31:45;;;;;;;4.60;2.03;;;;;;;;;;5018467;28;20255;-65
2023/11/07 07:34:13;;;;;;;1.53;1.43;;;;;;;;;;5018917;28;20695;-65
2023/11/07 07:36:44;;;;;;;4.33;2.03;;;;;;;;;;5018320;28;20240;-65
2023/11/07 07:39:27;;;;;;;3.60;2.00;;;;;;;;;;5018793;28;20236;-64
2023/11/07 07:41:58;;;;;;;1.77;1.67;;;;;;;;;;5024621;28;20232;-65
2023/11/07 07:44:27;;;;;;;2.73;1.60;;;;;;;;;;5018209;28;20270;-65
2023/11/07 07:46:57;;;;;;;3.63;1.93;;;;;;;;;;5018358;28;20239;-65
2023/11/07 07:49:26;;;;;;;5.60;1.93;;;;;;;;;;5018118;28;20208;-66
2023/11/07 07:51:55;;;;;;;2.60;1.50;;;;;;;;;;5019390;28;20232;-66
2023/11/07 07:54:23;;;;;;;3.93;1.67;;;;;;;;;;5018203;28;20205;-65
2023/11/07 07:56:54;;;;;;;2.50;1.80;;;;;;;;;;5030853;28;20211;-65
2023/11/07 07:59:23;;;;;;;3.07;1.80;;;;;;;;;;5030792;28;20634;-66
2023/11/07 08:01:55;;;;;;;2.30;1.83;;;;;;;;;;5017395;28;20244;-66
2023/11/07 08:04:25;;;;;;;7.87;1.93;;;;;;;;;;5017973;28;20204;-66
2023/11/07 08:06:57;;;;;;;4.33;2.17;;;;;;;;;;5018612;28;20208;-65
2023/11/07 08:09:26;;;;;;;2.77;1.63;;;;;;;;;;5033400;28;20211;-66
2023/11/07 08:11:56;;;;;;;4.47;1.80;;;;;;;;;;5037935;28;20313;-65
2023/11/07 08:14:24;;;;;;;3.03;1.83;;;;;;;;;;5037509;28;20207;-66
2023/11/07 08:16:53;;;;;;;2.60;1.60;;;;;;;;;;5019885;28;20201;-65
2023/11/07 08:19:22;;;;;;;6.47;1.97;;;;;;;;;;5018051;28;20239;-65
2023/11/07 08:21:52;;;;;;;4.43;2.20;;;;;;;;;;5018035;28;20223;-65
2023/11/07 08:24:20;;;;;;;2.77;1.83;;;;;;;;;;5037083;28;20204;-65
2023/11/07 08:26:48;;;;;;;2.83;1.90;;;;;;;;;;5019158;28;20211;-66
2023/11/07 08:29:17;;;;;;;5.57;1.90;;;;;;;;;;5017817;28;20219;-65
2023/11/07 08:31:45;;;;;;;1.60;1.50;;;;;;;;;;5017972;28;20384;-66
2023/11/07 08:34:13;;;;;;;1.87;1.30;;;;;;;;;;5017946;28;20212;-65
2023/11/07 08:36:42;;;;;;;2.97;1.40;;;;;;;;;;5017602;28;20646;-65
2023/11/07 08:39:29;;;;;;;2.90;1.77;;;;;;;;;;5017790;28;20219;-66
2023/11/07 08:41:58;;;;;;;4.00;1.50;;;;;;;;;;5024067;28;20228;-65
2023/11/07 08:44:26;;;;;;;2.23;1.90;;;;;;;;;;5017579;28;20651;-66
2023/11/07 08:46:54;;;;;;;3.70;1.37;;;;;;;;;;5017761;28;20204;-65
2023/11/07 08:49:23;;;;;;;1.70;1.47;;;;;;;;;;5017405;28;20232;-66
2023/11/07 08:51:51;;;;;;;1.53;1.30;;;;;;;;;;5017410;28;20232;-65
2023/11/07 08:54:21;;;;;;;3.70;1.60;;;;;;;;;;5017925;28;20247;-66
2023/11/07 08:56:51;;;;;;;2.47;1.60;;;;;;;;;;5017807;28;20218;-65
2023/11/07 08:59:20;;;;;;;3.57;1.77;;;;;;;;;;5025200;28;20219;-63
2023/11/07 09:01:49;;;;;;;2.50;1.33;;;;;;;;;;5037540;28;20318;-65
2023/11/07 09:04:18;;;;;;;7.20;1.90;;;;;;;;;;5023225;28;20248;-66
2023/11/07 09:06:46;;;;;;;2.33;1.53;;;;;;;;;;5016622;28;20691;-63
2023/11/07 09:09:15;;;;;;;3.33;1.63;;;;;;;;;;5032122;28;20224;-63
2023/11/07 09:11:45;;;;;;;2.23;1.40;;;;;;;;;;5016989;28;20346;-64
2023/11/07 09:14:18;;;;;;;2.70;1.53;;;;;;;;;;5031618;28;20290;-63
2023/11/07 09:16:47;;;;;;;7.07;1.67;;;;;;;;;;5025922;28;20287;-63
2023/11/07 09:19:18;;;;;;;1.50;1.40;;;;;;;;;;5020657;28;20778;-63
2023/11/07 09:21:51;;;;;;;3.33;1.67;;;;;;;;;;5020421;28;20223;-63
2023/11/07 09:24:25;;;;;;;3.27;1.70;;;;;;;;;;5030248;28;20203;-64
2023/11/07 09:26:54;;;;;;;2.33;1.13;;;;;;;;;;5031333;28;20204;-64
2023/11/07 09:29:24;;;;;;;5.17;1.43;;;;;;;;;;5031478;28;20691;-66
2023/11/07 09:31:53;;;;;;;2.50;1.37;;;;;;;;;;5032596;28;20310;-67
2023/11/07 09:34:22;;;;;;;3.37;2.23;;;;;;;;;;5029082;28;20197;-66
2023/11/07 09:36:51;;;;;;;2.60;1.73;;;;;;;;;;5029497;28;20258;-66
2023/11/07 09:39:21;;;;;;;5.17;1.87;;;;;;;;;;5034020;28;20196;-66
2023/11/07 09:41:50;;;;;;;1.83;1.43;;;;;;;;;;5028375;28;20224;-66
2023/11/07 09:44:18;;;;;;;1.50;1.20;;;;;;;;;;5029399;28;20682;-66
2023/11/07 09:46:48;;;;;;;1.73;1.00;;;;;;;;;;5027986;28;20196;-67
2023/11/07 09:49:19;;;;;;;2.60;1.20;;;;;;;;;;5031036;28;20230;-66
2023/11/07 09:51:51;;;;;;;4.17;1.60;;;;;;;;;;5015592;28;20280;-65
2023/11/07 09:54:23;;;;;;;2.93;1.60;;;;;;;;;;5020256;28;20283;-66
2023/11/07 09:56:54;;;;;;;2.53;1.50;;;;;;;;;;5024259;28;20659;-66
2023/11/07 09:59:28;;;;;;;2.47;1.50;;;;;;;;;;5029240;28;20655;-66
2023/11/07 10:01:57;;;;;;;2.87;1.87;;;;;;;;;;5029914;28;20719;-65
2023/11/07 10:04:28;;;;;;;5.43;1.60;;;;;;;;;;5027065;28;20204;-64
2023/11/07 10:06:58;;;;;;;2.77;1.60;;;;;;;;;;5027261;28;20853;-63
2023/11/07 10:09:28;;;;;;;2.57;1.33;;;;;;;;;;5020190;28;20254;-65
2023/11/07 10:11:58;;;;;;;2.13;1.60;;;;;;;;;;5020209;28;20228;-65
2023/11/07 10:14:26;;;;;;;2.83;1.40;;;;;;;;;;5019837;28;20208;-64
2023/11/07 10:16:57;;;;;;;3.67;1.70;;;;;;;;;;5026377;28;20239;-65
2023/11/07 10:19:27;;;;;;;3.50;2.17;;;;;;;;;;5020138;28;20219;-64
2023/11/07 10:21:55;;;;;;;2.83;1.37;;;;;;;;;;5019741;28;20263;-65
2023/11/07 10:24:23;;;;;;;1.27;1.17;;;;;;;;;;5031414;28;20687;-63
2023/11/07 10:26:53;;;;;;;1.70;1.60;;;;;;;;;;5019955;28;20223;-63
2023/11/07 10:29:30;;;;;;;3.17;1.57;;;;;;;;;;5019484;28;20738;-63
2023/11/07 10:32:07;;;;;;;2.53;1.40;;;;;;;;;;5019554;28;20231;-63
2023/11/07 10:34:38;;;;;;;4.17;1.83;;;;;;;;;;5019561;28;20212;-63
2023/11/07 10:37:06;;;;;;;11.50;2.90;;;;;;;;;;5019451;28;20358;-63
2023/11/07 10:39:35;;;;;;;7.70;2.30;;;;;;;;;;5019565;28;20212;-63
2023/11/07 10:42:16;;;;;;;3.80;1.40;;;;;;;;;;5019933;28;20228;-64
2023/11/07 10:44:45;;;;;;;1.37;1.27;;;;;;;;;;5019351;28;20219;-64
2023/11/07 10:47:14;;;;;;;1.27;1.00;;;;;;;;;;5027162;28;20211;-63
2023/11/07 10:49:45;;;;;;;1.23;1.00;;;;;;;;;;5029731;28;20215;-63
2023/11/07 10:52:14;;;;;;;2.17;1.10;;;;;;;;;;5028958;28;20250;-63
2023/11/07 10:54:42;;;;;;;1.87;0.90;;;;;;;;;;5032103;28;20212;-64
2023/11/07 10:57:12;;;;;;;1.70;0.90;;;;;;;;;;5030031;28;20199;-63
2023/11/07 10:59:42;;;;;;;0.77;0.70;;;;;;;;;;5030140;28;20335;-63
2023/11/07 11:02:11;;;;;;;1.30;0.93;;;;;;;;;;5028811;28;20223;-63
2023/11/07 11:04:42;;;;;;;0.70;0.70;;;;;;;;;;5028373;28;20287;-63
2023/11/07 11:07:12;;;;;;;1.37;0.70;;;;;;;;;;5027190;28;20242;-63
2023/11/07 11:09:41;;;;;;;1.47;0.73;;;;;;;;;;5026839;28;20306;-63
2023/11/07 11:12:12;;;;;;;2.73;0.60;;;;;;;;;;5027287;28;20251;-63
2023/11/07 11:14:40;;;;;;;1.93;0.80;;;;;;;;;;5027684;28;20204;-64
2023/11/07 11:17:13;;;;;;;1.43;0.80;;;;;;;;;;5030143;28;20200;-63
2023/11/07 11:19:45;;;;;;;2.13;1.50;;;;;;;;;;5024164;28;20594;-63
2023/11/07 11:22:20;;;;;;;2.60;1.40;;;;;;;;;;5027307;28;20638;-63
2023/11/07 11:24:58;;;;;;;2.60;1.30;;;;;;;;;;5025599;28;20199;-63
2023/11/07 11:27:33;;;;;;;2.50;1.40;;;;;;;;;;5025718;28;20236;-63
2023/11/07 11:30:02;;;;;;;2.30;1.63;;;;;;;;;;5028967;28;20215;-63
2023/11/07 11:32:31;;;;;;;3.00;1.60;;;;;;;;;;5027470;28;20223;-63
2023/11/07 11:35:19;;;;;;;7.53;1.57;;;;;;;;;;5030553;28;20238;-63
2023/11/07 11:38:10;;;;;;;2.57;1.50;;;;;;;;;;5028637;28;20208;-65
2023/11/07 11:40:55;;;;;;;1.40;1.30;;;;;;;;;;5018075;28;20199;-63
2023/11/07 11:43:26;;;;;;;1.00;0.90;;;;;;;;;;5018231;28;20263;-63
2023/11/07 11:45:58;;;;;;;2.43;1.17;;;;;;;;;;5027851;28;20211;-64
2023/11/07 11:48:49;;;;;;;3.10;1.03;;;;;;;;;;5028368;28;20208;-63
2023/11/07 11:51:32;;;;;;;0.93;0.60;;;;;;;;;;5018997;28;20750;-63
2023/11/07 11:54:02;;;;;;;2.50;0.80;;;;;;;;;;5027286;28;20199;-63
2023/11/07 11:56:33;;;;;;;1.20;0.60;;;;;;;;;;5026874;28;20204;-63
2023/11/07 11:59:02;;;;;;;1.13;0.70;;;;;;;;;;5025907;28;20205;-63
2023/11/07 12:01:33;;;;;;;1.43;1.03;;;;;;;;;;5027065;28;20226;-63
2023/11/07 12:04:02;;;;;;;3.03;0.67;;;;;;;;;;5027461;28;20646;-63
2023/11/07 12:06:31;;;;;;;0.80;0.77;;;;;;;;;;5026711;28;20287;-64
2023/11/07 12:08:59;;;;;;;0.80;0.50;;;;;;;;;;5025816;28;20214;-63
2023/11/07 12:11:40;;;;;;;1.20;0.70;;;;;;;;;;5025582;28;20774;-64
2023/11/07 12:14:13;;;;;;;0.73;0.73;;;;;;;;;;5027782;28;20291;-63
2023/11/07 12:16:42;;;;;;;1.77;0.97;;;;;;;;;;5027220;28;20208;-63
2023/11/07 12:19:19;;;;;;;2.50;1.07;;;;;;;;;;5026546;28;20200;-63
2023/11/07 12:21:52;;;;;;;1.90;0.80;;;;;;;;;;5027481;28;20275;-63
2023/11/07 12:24:21;;;;;;;1.17;1.00;;;;;;;;;;5026758;28;20206;-63
2023/11/07 12:26:51;;;;;;;0.77;0.77;;;;;;;;;;5024462;28;20616;-63
2023/11/07 12:29:28;;;;;;;1.17;1.07;;;;;;;;;;5026019;28;20203;-63
2023/11/07 12:31:56;;;;;;;2.60;1.07;;;;;;;;;;5016764;28;20311;-63
2023/11/07 12:34:32;;;;;;;1.27;0.93;;;;;;;;;;5017374;28;20208;-63
2023/11/07 12:37:01;;;;;;;2.33;1.03;;;;;;;;;;5016566;28;20239;-63
2023/11/07 12:39:32;;;;;;;1.13;0.87;;;;;;;;;;5017663;28;20208;-63
2023/11/07 12:42:02;;;;;;;0.80;0.80;;;;;;;;;;5016420;28;20315;-63
2023/11/07 12:44:30;;;;;;;8.53;5.07;;;;;;;;;;5028435;28;20203;-63
2023/11/07 12:46:59;;;;;;;1.70;1.60;;;;;;;;;;5036160;28;20690;-63
2023/11/07 12:49:28;;;;;;;3.07;1.30;;;;;;;;;;5040994;28;20213;-64
2023/11/07 12:51:57;;;;;;;3.10;1.03;;;;;;;;;;5031909;28;20231;-63
2023/11/07 12:54:26;;;;;;;1.33;0.90;;;;;;;;;;5024726;28;20585;-64
2023/11/07 12:56:54;;;;;;;2.70;0.90;;;;;;;;;;5024695;28;20209;-63
2023/11/07 12:59:24;;;;;;;0.70;0.70;;;;;;;;;;5036755;28;20201;-63
2023/11/07 13:01:54;;;;;;;2.40;0.60;;;;;;;;;;5021402;28;20589;-63
2023/11/07 13:04:22;;;;;;;2.30;0.90;;;;;;;;;;5021158;28;20737;-63
2023/11/07 13:06:51;;;;;;;1.50;1.03;;;;;;;;;;5021365;28;20216;-63
2023/11/07 13:09:21;;;;;;;1.43;1.00;;;;;;;;;;5021495;28;20212;-64
2023/11/07 13:11:49;;;;;;;1.57;0.70;;;;;;;;;;5021298;28;20238;-64
2023/11/07 13:14:17;;;;;;;1.80;1.40;;;;;;;;;;5026903;28;20212;-62
2023/11/07 13:16:47;;;;;;;2.30;1.03;;;;;;;;;;5023161;28;20239;-62
2023/11/07 13:19:16;;;;;;;1.73;0.90;;;;;;;;;;5021463;28;20208;-63
2023/11/07 13:21:44;;;;;;;0.80;0.80;;;;;;;;;;5021007;28;20271;-63
2023/11/07 13:24:13;;;;;;;2.97;0.90;;;;;;;;;;5039559;28;20219;-64
2023/11/07 13:26:41;;;;;;;2.00;0.80;;;;;;;;;;5040888;28;20666;-63
2023/11/07 13:29:10;;;;;;;2.93;0.70;;;;;;;;;;5040460;28;20218;-63
2023/11/07 13:31:38;;;;;;;0.90;0.70;;;;;;;;;;5032149;28;20628;-63
2023/11/07 13:34:19;;;;;;;4.13;0.80;;;;;;;;;;5030847;28;20210;-62
2023/11/07 13:37:17;;;;;;;1.57;1.20;;;;;;;;;;5020630;28;20242;-62
2023/11/07 13:39:46;;;;;;;1.37;1.27;;;;;;;;;;5019844;28;20207;-62
2023/11/07 13:42:14;;;;;;;1.30;0.80;;;;;;;;;;5028622;28;20219;-61
2023/11/07 13:44:43;;;;;;;1.27;0.80;;;;;;;;;;5040191;28;20262;-63
2023/11/07 13:47:11;;;;;;;1.67;0.77;;;;;;;;;;5040270;28;20294;-63
2023/11/07 13:49:41;;;;;;;0.60;0.60;;;;;;;;;;5037410;28;20242;-62
2023/11/07 13:52:10;;;;;;;4.73;1.00;;;;;;;;;;5032442;28;20314;-62
2023/11/07 13:54:38;;;;;;;0.80;0.60;;;;;;;;;;5025207;28;20287;-62
2023/11/07 13:57:06;;;;;;;0.80;0.80;;;;;;;;;;5023688;28;20735;-62
2023/11/07 13:59:35;;;;;;;1.97;0.80;;;;;;;;;;5019939;28;20216;-62
2023/11/07 14:02:05;;;;;;;0.47;0.47;;;;;;;;;;5019858;28;20283;-63
2023/11/07 14:04:33;;;;;;;0.37;0.37;;;;;;;;;;5020187;28;20236;-62
2023/11/07 14:07:04;;;;;;;0.50;0.50;;;;;;;;;;5040068;28;20211;-63
2023/11/07 14:09:32;;;;;;;0.90;0.90;;;;;;;;;;5036735;28;20239;-62
2023/11/07 14:12:04;;;;;;;1.17;1.00;;;;;;;;;;5020735;28;20311;-62
2023/11/07 14:14:33;;;;;;;1.77;1.13;;;;;;;;;;5036251;28;20242;-62
2023/11/07 14:17:02;;;;;;;5.30;1.40;;;;;;;;;;5034614;28;20681;-62
2023/11/07 14:19:30;;;;;;;1.33;0.97;;;;;;;;;;5039637;28;20208;-63
2023/11/07 14:21:59;;;;;;;2.27;1.20;;;;;;;;;;5029635;28;20302;-63
2023/11/07 14:24:29;;;;;;;2.83;1.30;;;;;;;;;;5039427;28;20571;-63
2023/11/07 14:26:58;;;;;;;1.60;1.20;;;;;;;;;;5039552;28;20265;-62
2023/11/07 14:29:26;;;;;;;3.63;1.10;;;;;;;;;;5022198;28;20664;-63
2023/11/07 14:32:15;;;;;;;2.23;1.07;;;;;;;;;;5019171;28;20239;-62
2023/11/07 14:34:43;;;;;;;1.37;1.00;;;;;;;;;;5019502;28;20215;-62
2023/11/07 14:37:12;;;;;;;1.97;1.10;;;;;;;;;;5019163;28;20730;-63
2023/11/07 14:39:42;;;;;;;1.77;1.10;;;;;;;;;;5028904;28;20211;-62
2023/11/07 14:42:14;;;;;;;2.10;1.00;;;;;;;;;;5026548;28;20347;-63
2023/11/07 14:44:42;;;;;;;1.03;0.80;;;;;;;;;;5019491;28;20224;-63
2023/11/07 14:47:11;;;;;;;4.00;1.00;;;;;;;;;;5019257;28;20250;-63
2023/11/07 14:49:40;;;;;;;1.30;1.03;;;;;;;;;;5020228;28;20230;-63
2023/11/07 14:52:09;;;;;;;2.13;1.07;;;;;;;;;;5018928;28;20699;-63
2023/11/07 14:54:37;;;;;;;3.43;1.20;;;;;;;;;;5019227;28;20208;-64
2023/11/07 14:57:08;;;;;;;1.47;1.37;;;;;;;;;;5021061;28;20195;-64
2023/11/07 14:59:36;;;;;;;2.43;1.43;;;;;;;;;;5030027;28;20199;-65